<?xml version="1.0" encoding="utf-8"?>
<gpx xmlns:xsi="http://www.w3.org/2001/XMLSchema-instance" xmlns:xsd="http://www.w3.org/2001/XMLSchema" version="1.1" creator="Shapelink.com" xmlns="http://www.topografix.com/GPX/1/1" xmlns:gpxtpx="http://www.garmin.com/xmlschemas/TrackPointExtension/v1">
  <metadata>
    <name>Løping 5.56 km, 2019-05-20</name>
    <desc></desc>
    <author><name>Stefan Östlund</name></author> 
    <time>2019-05-20T11:42:36Z</time>
  </metadata>
  <trk>
    <name>Løping 5.56 km, 2019-05-20</name>
    <trkseg>
      <trkpt lat="59.982222449321" lon="15.792401324802">
        <ele>98</ele>
        <time>2019-05-20T11:42:36Z</time>
      </trkpt>
      <trkpt lat="59.982094960622" lon="15.792573991942">
        <ele>98</ele>
        <time>2019-05-20T11:42:42Z</time>
      </trkpt>
      <trkpt lat="59.981960347308" lon="15.792731152567">
        <ele>97.6</ele>
        <time>2019-05-20T11:42:48Z</time>
      </trkpt>
      <trkpt lat="59.981813244963" lon="15.792902394784">
        <ele>97.8</ele>
        <time>2019-05-20T11:42:54Z</time>
      </trkpt>
      <trkpt lat="59.981671590853" lon="15.793095178484">
        <ele>97.4</ele>
        <time>2019-05-20T11:43:00Z</time>
      </trkpt>
      <trkpt lat="59.98159975797" lon="15.793305731812">
        <ele>97.2</ele>
        <time>2019-05-20T11:43:05Z</time>
      </trkpt>
      <trkpt lat="59.981580647238" lon="15.793597673389">
        <ele>97.2</ele>
        <time>2019-05-20T11:43:11Z</time>
      </trkpt>
      <trkpt lat="59.981630687181" lon="15.793856422642">
        <ele>97</ele>
        <time>2019-05-20T11:43:17Z</time>
      </trkpt>
      <trkpt lat="59.981720038235" lon="15.794053062016">
        <ele>98</ele>
        <time>2019-05-20T11:43:23Z</time>
      </trkpt>
      <trkpt lat="59.981762450649" lon="15.794159679784">
        <ele>98.2</ele>
        <time>2019-05-20T11:43:26Z</time>
      </trkpt>
      <trkpt lat="59.981860937974" lon="15.794367131809">
        <ele>98.8</ele>
        <time>2019-05-20T11:43:32Z</time>
      </trkpt>
      <trkpt lat="59.981954563797" lon="15.794567207762">
        <ele>98.8</ele>
        <time>2019-05-20T11:43:38Z</time>
      </trkpt>
      <trkpt lat="59.982030839087" lon="15.794752783028">
        <ele>98.8</ele>
        <time>2019-05-20T11:43:44Z</time>
      </trkpt>
      <trkpt lat="59.982083561238" lon="15.794891335835">
        <ele>99.4</ele>
        <time>2019-05-20T11:43:48Z</time>
      </trkpt>
      <trkpt lat="59.982177606156" lon="15.795119658791">
        <ele>100</ele>
        <time>2019-05-20T11:43:54Z</time>
      </trkpt>
      <trkpt lat="59.982258994405" lon="15.79532258459">
        <ele>100.2</ele>
        <time>2019-05-20T11:44:00Z</time>
      </trkpt>
      <trkpt lat="59.982358487558" lon="15.795518888688">
        <ele>100</ele>
        <time>2019-05-20T11:44:06Z</time>
      </trkpt>
      <trkpt lat="59.982471140294" lon="15.795716030976">
        <ele>99.8</ele>
        <time>2019-05-20T11:44:12Z</time>
      </trkpt>
      <trkpt lat="59.982592007292" lon="15.795905378097">
        <ele>100.2</ele>
        <time>2019-05-20T11:44:18Z</time>
      </trkpt>
      <trkpt lat="59.982699379431" lon="15.796115428511">
        <ele>99.8</ele>
        <time>2019-05-20T11:44:24Z</time>
      </trkpt>
      <trkpt lat="59.982821252257" lon="15.796313576627">
        <ele>99.4</ele>
        <time>2019-05-20T11:44:30Z</time>
      </trkpt>
      <trkpt lat="59.982955278838" lon="15.796509126354">
        <ele>98.6</ele>
        <time>2019-05-20T11:44:36Z</time>
      </trkpt>
      <trkpt lat="59.983033398146" lon="15.796639129623">
        <ele>98.2</ele>
        <time>2019-05-20T11:44:40Z</time>
      </trkpt>
      <trkpt lat="59.98311688187" lon="15.796769635806">
        <ele>97.2</ele>
        <time>2019-05-20T11:44:44Z</time>
      </trkpt>
      <trkpt lat="59.983139513" lon="15.796796206429">
        <ele>97</ele>
        <time>2019-05-20T11:44:45Z</time>
      </trkpt>
      <trkpt lat="59.983269851545" lon="15.796960575488">
        <ele>96.4</ele>
        <time>2019-05-20T11:44:51Z</time>
      </trkpt>
      <trkpt lat="59.983406979429" lon="15.79712134033">
        <ele>96</ele>
        <time>2019-05-20T11:44:57Z</time>
      </trkpt>
      <trkpt lat="59.983532121196" lon="15.797239776577">
        <ele>95</ele>
        <time>2019-05-20T11:45:02Z</time>
      </trkpt>
      <trkpt lat="59.983665561044" lon="15.797377407375">
        <ele>94.4</ele>
        <time>2019-05-20T11:45:08Z</time>
      </trkpt>
      <trkpt lat="59.983814339769" lon="15.797519396761">
        <ele>94</ele>
        <time>2019-05-20T11:45:14Z</time>
      </trkpt>
      <trkpt lat="59.98383688708" lon="15.797539848597">
        <ele>94</ele>
        <time>2019-05-20T11:45:15Z</time>
      </trkpt>
      <trkpt lat="59.983966974168" lon="15.797669768047">
        <ele>94</ele>
        <time>2019-05-20T11:45:21Z</time>
      </trkpt>
      <trkpt lat="59.984091445383" lon="15.797792981977">
        <ele>93.4</ele>
        <time>2019-05-20T11:45:27Z</time>
      </trkpt>
      <trkpt lat="59.984245588524" lon="15.797908149283">
        <ele>93</ele>
        <time>2019-05-20T11:45:33Z</time>
      </trkpt>
      <trkpt lat="59.984271656233" lon="15.797917201735">
        <ele>93</ele>
        <time>2019-05-20T11:45:34Z</time>
      </trkpt>
      <trkpt lat="59.984412555972" lon="15.797864060489">
        <ele>92.2</ele>
        <time>2019-05-20T11:45:40Z</time>
      </trkpt>
      <trkpt lat="59.98449905718" lon="15.79764940003">
        <ele>92.4</ele>
        <time>2019-05-20T11:45:46Z</time>
      </trkpt>
      <trkpt lat="59.984547336924" lon="15.797391740424">
        <ele>92.8</ele>
        <time>2019-05-20T11:45:52Z</time>
      </trkpt>
      <trkpt lat="59.984597376867" lon="15.797125112185">
        <ele>93.6</ele>
        <time>2019-05-20T11:45:58Z</time>
      </trkpt>
      <trkpt lat="59.984632999942" lon="15.796937860539">
        <ele>94</ele>
        <time>2019-05-20T11:46:02Z</time>
      </trkpt>
      <trkpt lat="59.984708520861" lon="15.796702580606">
        <ele>94</ele>
        <time>2019-05-20T11:46:08Z</time>
      </trkpt>
      <trkpt lat="59.984837853578" lon="15.796567129102">
        <ele>94.2</ele>
        <time>2019-05-20T11:46:14Z</time>
      </trkpt>
      <trkpt lat="59.984973305082" lon="15.796481717541">
        <ele>94.6</ele>
        <time>2019-05-20T11:46:20Z</time>
      </trkpt>
      <trkpt lat="59.985110265328" lon="15.796413824151">
        <ele>94</ele>
        <time>2019-05-20T11:46:26Z</time>
      </trkpt>
      <trkpt lat="59.985256278026" lon="15.796316510292">
        <ele>94.2</ele>
        <time>2019-05-20T11:46:32Z</time>
      </trkpt>
      <trkpt lat="59.985384102001" lon="15.796196565303">
        <ele>94</ele>
        <time>2019-05-20T11:46:38Z</time>
      </trkpt>
      <trkpt lat="59.98551578165" lon="15.796074524839">
        <ele>94.2</ele>
        <time>2019-05-20T11:46:44Z</time>
      </trkpt>
      <trkpt lat="59.985613514604" lon="15.795988861821">
        <ele>93.6</ele>
        <time>2019-05-20T11:46:50Z</time>
      </trkpt>
      <trkpt lat="59.985731783213" lon="15.79587746637">
        <ele>93.8</ele>
        <time>2019-05-20T11:46:56Z</time>
      </trkpt>
      <trkpt lat="59.985883244146" lon="15.795727933274">
        <ele>93.6</ele>
        <time>2019-05-20T11:47:02Z</time>
      </trkpt>
      <trkpt lat="59.986015007614" lon="15.795587284992">
        <ele>94.4</ele>
        <time>2019-05-20T11:47:08Z</time>
      </trkpt>
      <trkpt lat="59.986138221544" lon="15.795436662249">
        <ele>94.4</ele>
        <time>2019-05-20T11:47:14Z</time>
      </trkpt>
      <trkpt lat="59.986246348054" lon="15.795322081676">
        <ele>95</ele>
        <time>2019-05-20T11:47:19Z</time>
      </trkpt>
      <trkpt lat="59.986349277786" lon="15.795201382316">
        <ele>95.4</ele>
        <time>2019-05-20T11:47:25Z</time>
      </trkpt>
      <trkpt lat="59.986472324078" lon="15.79512225718">
        <ele>95.8</ele>
        <time>2019-05-20T11:47:31Z</time>
      </trkpt>
      <trkpt lat="59.986598974587" lon="15.795021925837">
        <ele>96</ele>
        <time>2019-05-20T11:47:37Z</time>
      </trkpt>
      <trkpt lat="59.986626131943" lon="15.795012789566">
        <ele>96.2</ele>
        <time>2019-05-20T11:47:38Z</time>
      </trkpt>
      <trkpt lat="59.986776084134" lon="15.795008850073">
        <ele>96</ele>
        <time>2019-05-20T11:47:44Z</time>
      </trkpt>
      <trkpt lat="59.986927880343" lon="15.795038019085">
        <ele>96.2</ele>
        <time>2019-05-20T11:47:50Z</time>
      </trkpt>
      <trkpt lat="59.987057883612" lon="15.79515578478">
        <ele>96.2</ele>
        <time>2019-05-20T11:47:56Z</time>
      </trkpt>
      <trkpt lat="59.98709660799" lon="15.795204148343">
        <ele>96.2</ele>
        <time>2019-05-20T11:47:58Z</time>
      </trkpt>
      <trkpt lat="59.987179421162" lon="15.795384694469">
        <ele>96</ele>
        <time>2019-05-20T11:48:04Z</time>
      </trkpt>
      <trkpt lat="59.987265838551" lon="15.795555098496">
        <ele>95.4</ele>
        <time>2019-05-20T11:48:10Z</time>
      </trkpt>
      <trkpt lat="59.987278746677" lon="15.795584267508">
        <ele>95.2</ele>
        <time>2019-05-20T11:48:11Z</time>
      </trkpt>
      <trkpt lat="59.987381341133" lon="15.795804460021">
        <ele>94.6</ele>
        <time>2019-05-20T11:48:17Z</time>
      </trkpt>
      <trkpt lat="59.987437416044" lon="15.795888865754">
        <ele>94</ele>
        <time>2019-05-20T11:48:20Z</time>
      </trkpt>
      <trkpt lat="59.987473374395" lon="15.795945527398">
        <ele>93.6</ele>
        <time>2019-05-20T11:48:22Z</time>
      </trkpt>
      <trkpt lat="59.987588122606" lon="15.796119284185">
        <ele>93.2</ele>
        <time>2019-05-20T11:48:28Z</time>
      </trkpt>
      <trkpt lat="59.987626008794" lon="15.796176364924">
        <ele>92.8</ele>
        <time>2019-05-20T11:48:30Z</time>
      </trkpt>
      <trkpt lat="59.987714018744" lon="15.796321371794">
        <ele>91.6</ele>
        <time>2019-05-20T11:48:35Z</time>
      </trkpt>
      <trkpt lat="59.987825581833" lon="15.79649772697">
        <ele>90.8</ele>
        <time>2019-05-20T11:48:41Z</time>
      </trkpt>
      <trkpt lat="59.987844524927" lon="15.796533350045">
        <ele>90.6</ele>
        <time>2019-05-20T11:48:42Z</time>
      </trkpt>
      <trkpt lat="59.987930774678" lon="15.796690762127">
        <ele>90.4</ele>
        <time>2019-05-20T11:48:47Z</time>
      </trkpt>
      <trkpt lat="59.988060945585" lon="15.796774162032">
        <ele>89.8</ele>
        <time>2019-05-20T11:48:53Z</time>
      </trkpt>
      <trkpt lat="59.988103693275" lon="15.796742897545">
        <ele>89.6</ele>
        <time>2019-05-20T11:48:55Z</time>
      </trkpt>
      <trkpt lat="59.988240485883" lon="15.796633262293">
        <ele>89</ele>
        <time>2019-05-20T11:49:01Z</time>
      </trkpt>
      <trkpt lat="59.98836562765" lon="15.796543659782">
        <ele>88.8</ele>
        <time>2019-05-20T11:49:07Z</time>
      </trkpt>
      <trkpt lat="59.988488925399" lon="15.796439808041">
        <ele>88.8</ele>
        <time>2019-05-20T11:49:13Z</time>
      </trkpt>
      <trkpt lat="59.988517507678" lon="15.796419942938">
        <ele>88.6</ele>
        <time>2019-05-20T11:49:14Z</time>
      </trkpt>
      <trkpt lat="59.988602667782" lon="15.796377614343">
        <ele>88.4</ele>
        <time>2019-05-20T11:49:17Z</time>
      </trkpt>
      <trkpt lat="59.988748093747" lon="15.79623872626">
        <ele>88</ele>
        <time>2019-05-20T11:49:23Z</time>
      </trkpt>
      <trkpt lat="59.988887317106" lon="15.796069244242">
        <ele>88.8</ele>
        <time>2019-05-20T11:49:29Z</time>
      </trkpt>
      <trkpt lat="59.989045064464" lon="15.795963967578">
        <ele>88.6</ele>
        <time>2019-05-20T11:49:35Z</time>
      </trkpt>
      <trkpt lat="59.989175235371" lon="15.795852236851">
        <ele>88.6</ele>
        <time>2019-05-20T11:49:41Z</time>
      </trkpt>
      <trkpt lat="59.989312866169" lon="15.795738410649">
        <ele>88.2</ele>
        <time>2019-05-20T11:49:47Z</time>
      </trkpt>
      <trkpt lat="59.989443875266" lon="15.795621399325">
        <ele>88.2</ele>
        <time>2019-05-20T11:49:53Z</time>
      </trkpt>
      <trkpt lat="59.989593073086" lon="15.795478739387">
        <ele>88.2</ele>
        <time>2019-05-20T11:49:59Z</time>
      </trkpt>
      <trkpt lat="59.989732464083" lon="15.795324344789">
        <ele>88.6</ele>
        <time>2019-05-20T11:50:05Z</time>
      </trkpt>
      <trkpt lat="59.989874537288" lon="15.795209764216">
        <ele>88.4</ele>
        <time>2019-05-20T11:50:11Z</time>
      </trkpt>
      <trkpt lat="59.990039912175" lon="15.795028463719">
        <ele>87.8</ele>
        <time>2019-05-20T11:50:18Z</time>
      </trkpt>
      <trkpt lat="59.990233198789" lon="15.794828387766">
        <ele>88.6</ele>
        <time>2019-05-20T11:50:24Z</time>
      </trkpt>
      <trkpt lat="59.990410895069" lon="15.794641890491">
        <ele>88.8</ele>
        <time>2019-05-20T11:50:29Z</time>
      </trkpt>
      <trkpt lat="59.990529247497" lon="15.794524543891">
        <ele>89.6</ele>
        <time>2019-05-20T11:50:32Z</time>
      </trkpt>
      <trkpt lat="59.990721360645" lon="15.794349781276">
        <ele>90</ele>
        <time>2019-05-20T11:50:37Z</time>
      </trkpt>
      <trkpt lat="59.990916826553" lon="15.794219778007">
        <ele>89.8</ele>
        <time>2019-05-20T11:50:42Z</time>
      </trkpt>
      <trkpt lat="59.991108436787" lon="15.794126738917">
        <ele>89.4</ele>
        <time>2019-05-20T11:50:47Z</time>
      </trkpt>
      <trkpt lat="59.991143137853" lon="15.794109891298">
        <ele>89.2</ele>
        <time>2019-05-20T11:50:48Z</time>
      </trkpt>
      <trkpt lat="59.991242966282" lon="15.794093881869">
        <ele>88.6</ele>
        <time>2019-05-20T11:50:51Z</time>
      </trkpt>
      <trkpt lat="59.991420411105" lon="15.793965052066">
        <ele>88.2</ele>
        <time>2019-05-20T11:50:57Z</time>
      </trkpt>
      <trkpt lat="59.991588719657" lon="15.793839658842">
        <ele>88.6</ele>
        <time>2019-05-20T11:51:03Z</time>
      </trkpt>
      <trkpt lat="59.991742862798" lon="15.793651820463">
        <ele>89.8</ele>
        <time>2019-05-20T11:51:09Z</time>
      </trkpt>
      <trkpt lat="59.991813019301" lon="15.793536317881">
        <ele>91</ele>
        <time>2019-05-20T11:51:12Z</time>
      </trkpt>
      <trkpt lat="59.991967497718" lon="15.793325094001">
        <ele>91.6</ele>
        <time>2019-05-20T11:51:18Z</time>
      </trkpt>
      <trkpt lat="59.992143014704" lon="15.793119988908">
        <ele>90.4</ele>
        <time>2019-05-20T11:51:24Z</time>
      </trkpt>
      <trkpt lat="59.992236053794" lon="15.793006330344">
        <ele>89.8</ele>
        <time>2019-05-20T11:51:27Z</time>
      </trkpt>
      <trkpt lat="59.992412157513" lon="15.792825113666">
        <ele>89</ele>
        <time>2019-05-20T11:51:32Z</time>
      </trkpt>
      <trkpt lat="59.992554649813" lon="15.792659738779">
        <ele>88.8</ele>
        <time>2019-05-20T11:51:38Z</time>
      </trkpt>
      <trkpt lat="59.992576610391" lon="15.79263618564">
        <ele>89</ele>
        <time>2019-05-20T11:51:40Z</time>
      </trkpt>
      <trkpt lat="59.992613826027" lon="15.792604082963">
        <ele>88.8</ele>
        <time>2019-05-20T11:51:43Z</time>
      </trkpt>
      <trkpt lat="59.992687000014" lon="15.792513977538">
        <ele>88.8</ele>
        <time>2019-05-20T11:51:48Z</time>
      </trkpt>
      <trkpt lat="59.992744583667" lon="15.792476426626">
        <ele>88.6</ele>
        <time>2019-05-20T11:51:52Z</time>
      </trkpt>
      <trkpt lat="59.992755731594" lon="15.792524538732">
        <ele>88.8</ele>
        <time>2019-05-20T11:51:57Z</time>
      </trkpt>
      <trkpt lat="59.992720611433" lon="15.79258505605">
        <ele>88.8</ele>
        <time>2019-05-20T11:52:03Z</time>
      </trkpt>
      <trkpt lat="59.992646347799" lon="15.792653033259">
        <ele>88.8</ele>
        <time>2019-05-20T11:52:09Z</time>
      </trkpt>
      <trkpt lat="59.99248365512" lon="15.7927820307">
        <ele>88.8</ele>
        <time>2019-05-20T11:52:15Z</time>
      </trkpt>
      <trkpt lat="59.992306294116" lon="15.792984956499">
        <ele>89.8</ele>
        <time>2019-05-20T11:52:21Z</time>
      </trkpt>
      <trkpt lat="59.992129519845" lon="15.793132561758">
        <ele>90</ele>
        <time>2019-05-20T11:52:27Z</time>
      </trkpt>
      <trkpt lat="59.992015777462" lon="15.793296427903">
        <ele>88.8</ele>
        <time>2019-05-20T11:52:31Z</time>
      </trkpt>
      <trkpt lat="59.991843613236" lon="15.79340732044">
        <ele>88.2</ele>
        <time>2019-05-20T11:52:37Z</time>
      </trkpt>
      <trkpt lat="59.991659546712" lon="15.793575377535">
        <ele>87.8</ele>
        <time>2019-05-20T11:52:43Z</time>
      </trkpt>
      <trkpt lat="59.991454190162" lon="15.793661375829">
        <ele>87.2</ele>
        <time>2019-05-20T11:52:48Z</time>
      </trkpt>
      <trkpt lat="59.99133868758" lon="15.793713678885">
        <ele>86.6</ele>
        <time>2019-05-20T11:52:51Z</time>
      </trkpt>
      <trkpt lat="59.991158141454" lon="15.793797665523">
        <ele>86.2</ele>
        <time>2019-05-20T11:52:56Z</time>
      </trkpt>
      <trkpt lat="59.990973152921" lon="15.793939738728">
        <ele>86.8</ele>
        <time>2019-05-20T11:53:01Z</time>
      </trkpt>
      <trkpt lat="59.99081984797" lon="15.794126571279">
        <ele>86.8</ele>
        <time>2019-05-20T11:53:06Z</time>
      </trkpt>
      <trkpt lat="59.990763856878" lon="15.794310973079">
        <ele>87.8</ele>
        <time>2019-05-20T11:53:08Z</time>
      </trkpt>
      <trkpt lat="59.990586412055" lon="15.794532590515">
        <ele>88</ele>
        <time>2019-05-20T11:53:13Z</time>
      </trkpt>
      <trkpt lat="59.990396645839" lon="15.794739623445">
        <ele>87.4</ele>
        <time>2019-05-20T11:53:18Z</time>
      </trkpt>
      <trkpt lat="59.990215261523" lon="15.79490935692">
        <ele>86.8</ele>
        <time>2019-05-20T11:53:23Z</time>
      </trkpt>
      <trkpt lat="59.990188774719" lon="15.794952356067">
        <ele>86.6</ele>
        <time>2019-05-20T11:53:24Z</time>
      </trkpt>
      <trkpt lat="59.990062794762" lon="15.795148995441">
        <ele>86.6</ele>
        <time>2019-05-20T11:53:30Z</time>
      </trkpt>
      <trkpt lat="59.990015017932" lon="15.795199622117">
        <ele>87.2</ele>
        <time>2019-05-20T11:53:36Z</time>
      </trkpt>
      <trkpt lat="59.989983166712" lon="15.795230216052">
        <ele>87.2</ele>
        <time>2019-05-20T11:53:38Z</time>
      </trkpt>
      <trkpt lat="59.989968749844" lon="15.795285788049">
        <ele>87.4</ele>
        <time>2019-05-20T11:53:42Z</time>
      </trkpt>
      <trkpt lat="59.98996992331" lon="15.79528067509">
        <ele>87.2</ele>
        <time>2019-05-20T11:53:48Z</time>
      </trkpt>
      <trkpt lat="59.989985178368" lon="15.795203142515">
        <ele>87.2</ele>
        <time>2019-05-20T11:53:54Z</time>
      </trkpt>
      <trkpt lat="59.990053155577" lon="15.795114126737">
        <ele>87</ele>
        <time>2019-05-20T11:54:00Z</time>
      </trkpt>
      <trkpt lat="59.990231690047" lon="15.794992756825">
        <ele>87</ele>
        <time>2019-05-20T11:54:06Z</time>
      </trkpt>
      <trkpt lat="59.990390946147" lon="15.794778096366">
        <ele>87.2</ele>
        <time>2019-05-20T11:54:12Z</time>
      </trkpt>
      <trkpt lat="59.990450792913" lon="15.79470316218">
        <ele>87.8</ele>
        <time>2019-05-20T11:54:14Z</time>
      </trkpt>
      <trkpt lat="59.990625304071" lon="15.794480119821">
        <ele>88.2</ele>
        <time>2019-05-20T11:54:19Z</time>
      </trkpt>
      <trkpt lat="59.990817668676" lon="15.794319941712">
        <ele>88.6</ele>
        <time>2019-05-20T11:54:24Z</time>
      </trkpt>
      <trkpt lat="59.991015816792" lon="15.794192536832">
        <ele>86.8</ele>
        <time>2019-05-20T11:54:29Z</time>
      </trkpt>
      <trkpt lat="59.991191417597" lon="15.794067395065">
        <ele>86.8</ele>
        <time>2019-05-20T11:54:34Z</time>
      </trkpt>
      <trkpt lat="59.991336759743" lon="15.794014756733">
        <ele>86.8</ele>
        <time>2019-05-20T11:54:38Z</time>
      </trkpt>
      <trkpt lat="59.991516300041" lon="15.793946611886">
        <ele>87.6</ele>
        <time>2019-05-20T11:54:44Z</time>
      </trkpt>
      <trkpt lat="59.99164378874" lon="15.793828678553">
        <ele>87.8</ele>
        <time>2019-05-20T11:54:49Z</time>
      </trkpt>
      <trkpt lat="59.991766332118" lon="15.793619214872">
        <ele>88.2</ele>
        <time>2019-05-20T11:54:55Z</time>
      </trkpt>
      <trkpt lat="59.991821904115" lon="15.793512261828">
        <ele>89</ele>
        <time>2019-05-20T11:54:58Z</time>
      </trkpt>
      <trkpt lat="59.991907315676" lon="15.793353089547">
        <ele>90.2</ele>
        <time>2019-05-20T11:55:02Z</time>
      </trkpt>
      <trkpt lat="59.992056848772" lon="15.793144883151">
        <ele>90</ele>
        <time>2019-05-20T11:55:08Z</time>
      </trkpt>
      <trkpt lat="59.992122311411" lon="15.793071122431">
        <ele>89</ele>
        <time>2019-05-20T11:55:10Z</time>
      </trkpt>
      <trkpt lat="59.992199843986" lon="15.792997864625">
        <ele>88.6</ele>
        <time>2019-05-20T11:55:12Z</time>
      </trkpt>
      <trkpt lat="59.992375696248" lon="15.792820755078">
        <ele>88</ele>
        <time>2019-05-20T11:55:17Z</time>
      </trkpt>
      <trkpt lat="59.992496730884" lon="15.792697708786">
        <ele>88</ele>
        <time>2019-05-20T11:55:22Z</time>
      </trkpt>
      <trkpt lat="59.992515841616" lon="15.79266803686">
        <ele>88</ele>
        <time>2019-05-20T11:55:24Z</time>
      </trkpt>
      <trkpt lat="59.992571162156" lon="15.792670383792">
        <ele>88</ele>
        <time>2019-05-20T11:55:30Z</time>
      </trkpt>
      <trkpt lat="59.992619944814" lon="15.792582206204">
        <ele>88</ele>
        <time>2019-05-20T11:55:36Z</time>
      </trkpt>
      <trkpt lat="59.992637546804" lon="15.792564520395">
        <ele>88</ele>
        <time>2019-05-20T11:55:38Z</time>
      </trkpt>
      <trkpt lat="59.99266805692" lon="15.792543900921">
        <ele>87.8</ele>
        <time>2019-05-20T11:55:41Z</time>
      </trkpt>
      <trkpt lat="59.992716923397" lon="15.792493190426">
        <ele>87.6</ele>
        <time>2019-05-20T11:55:46Z</time>
      </trkpt>
      <trkpt lat="59.992737459052" lon="15.792498303385">
        <ele>87.6</ele>
        <time>2019-05-20T11:55:48Z</time>
      </trkpt>
      <trkpt lat="59.992721281985" lon="15.792547505138">
        <ele>89.2</ele>
        <time>2019-05-20T11:55:51Z</time>
      </trkpt>
      <trkpt lat="59.99270074633" lon="15.792578518168">
        <ele>88.6</ele>
        <time>2019-05-20T11:55:52Z</time>
      </trkpt>
      <trkpt lat="59.992539478574" lon="15.792696786777">
        <ele>89.4</ele>
        <time>2019-05-20T11:55:58Z</time>
      </trkpt>
      <trkpt lat="59.992363374855" lon="15.792840787819">
        <ele>90</ele>
        <time>2019-05-20T11:56:04Z</time>
      </trkpt>
      <trkpt lat="59.992187438774" lon="15.793066512386">
        <ele>90.4</ele>
        <time>2019-05-20T11:56:10Z</time>
      </trkpt>
      <trkpt lat="59.992035558746" lon="15.793271282203">
        <ele>90.2</ele>
        <time>2019-05-20T11:56:16Z</time>
      </trkpt>
      <trkpt lat="59.991982585138" lon="15.79333355972">
        <ele>88.4</ele>
        <time>2019-05-20T11:56:18Z</time>
      </trkpt>
      <trkpt lat="59.991809834179" lon="15.793475130011">
        <ele>88.4</ele>
        <time>2019-05-20T11:56:24Z</time>
      </trkpt>
      <trkpt lat="59.991671784286" lon="15.793687024443">
        <ele>88.2</ele>
        <time>2019-05-20T11:56:29Z</time>
      </trkpt>
      <trkpt lat="59.991505068295" lon="15.793914593028">
        <ele>88.4</ele>
        <time>2019-05-20T11:56:35Z</time>
      </trkpt>
      <trkpt lat="59.991367940411" lon="15.794054151663">
        <ele>87.4</ele>
        <time>2019-05-20T11:56:39Z</time>
      </trkpt>
      <trkpt lat="59.991174150883" lon="15.794164541286">
        <ele>87.6</ele>
        <time>2019-05-20T11:56:45Z</time>
      </trkpt>
      <trkpt lat="59.990987737427" lon="15.794287922854">
        <ele>88</ele>
        <time>2019-05-20T11:56:51Z</time>
      </trkpt>
      <trkpt lat="59.990810292604" lon="15.794483053486">
        <ele>87.8</ele>
        <time>2019-05-20T11:56:56Z</time>
      </trkpt>
      <trkpt lat="59.99071172146" lon="15.794601322095">
        <ele>88.4</ele>
        <time>2019-05-20T11:56:59Z</time>
      </trkpt>
      <trkpt lat="59.990541149795" lon="15.794774324511">
        <ele>89</ele>
        <time>2019-05-20T11:57:04Z</time>
      </trkpt>
      <trkpt lat="59.990366135723" lon="15.795001725458">
        <ele>87.8</ele>
        <time>2019-05-20T11:57:10Z</time>
      </trkpt>
      <trkpt lat="59.990270246787" lon="15.795056962179">
        <ele>87.4</ele>
        <time>2019-05-20T11:57:13Z</time>
      </trkpt>
      <trkpt lat="59.990220877396" lon="15.795084957725">
        <ele>87.4</ele>
        <time>2019-05-20T11:57:16Z</time>
      </trkpt>
      <trkpt lat="59.990198916818" lon="15.795095854195">
        <ele>87.8</ele>
        <time>2019-05-20T11:57:18Z</time>
      </trkpt>
      <trkpt lat="59.990165305399" lon="15.795138685704">
        <ele>87.8</ele>
        <time>2019-05-20T11:57:21Z</time>
      </trkpt>
      <trkpt lat="59.990139405328" lon="15.79514824107">
        <ele>87.8</ele>
        <time>2019-05-20T11:57:23Z</time>
      </trkpt>
      <trkpt lat="59.990107637927" lon="15.795146061776">
        <ele>87.8</ele>
        <time>2019-05-20T11:57:25Z</time>
      </trkpt>
      <trkpt lat="59.990075283793" lon="15.795153018753">
        <ele>87.8</ele>
        <time>2019-05-20T11:57:27Z</time>
      </trkpt>
      <trkpt lat="59.990029518619" lon="15.795176152797">
        <ele>87.8</ele>
        <time>2019-05-20T11:57:30Z</time>
      </trkpt>
      <trkpt lat="59.989973946622" lon="15.795317639269">
        <ele>88</ele>
        <time>2019-05-20T11:57:36Z</time>
      </trkpt>
      <trkpt lat="59.989951315492" lon="15.79532090821">
        <ele>88</ele>
        <time>2019-05-20T11:57:38Z</time>
      </trkpt>
      <trkpt lat="59.990124066451" lon="15.795126699587">
        <ele>87.8</ele>
        <time>2019-05-20T11:57:48Z</time>
      </trkpt>
      <trkpt lat="59.990287094406" lon="15.794905668884">
        <ele>87.8</ele>
        <time>2019-05-20T11:57:54Z</time>
      </trkpt>
      <trkpt lat="59.990437800968" lon="15.794700312334">
        <ele>87.8</ele>
        <time>2019-05-20T11:57:59Z</time>
      </trkpt>
      <trkpt lat="59.99062622608" lon="15.794463020745">
        <ele>86.4</ele>
        <time>2019-05-20T11:58:04Z</time>
      </trkpt>
      <trkpt lat="59.990813393907" lon="15.794280546782">
        <ele>86.4</ele>
        <time>2019-05-20T11:58:09Z</time>
      </trkpt>
      <trkpt lat="59.99099838244" lon="15.794160350336">
        <ele>86.6</ele>
        <time>2019-05-20T11:58:14Z</time>
      </trkpt>
      <trkpt lat="59.991176330177" lon="15.794055408948">
        <ele>86.4</ele>
        <time>2019-05-20T11:58:19Z</time>
      </trkpt>
      <trkpt lat="59.991377076682" lon="15.793986174454">
        <ele>86.2</ele>
        <time>2019-05-20T11:58:25Z</time>
      </trkpt>
      <trkpt lat="59.991552677487" lon="15.793938565262">
        <ele>86.8</ele>
        <time>2019-05-20T11:58:31Z</time>
      </trkpt>
      <trkpt lat="59.991606656923" lon="15.793904953843">
        <ele>87.6</ele>
        <time>2019-05-20T11:58:33Z</time>
      </trkpt>
      <trkpt lat="59.991702797316" lon="15.793812417667">
        <ele>88.6</ele>
        <time>2019-05-20T11:58:37Z</time>
      </trkpt>
      <trkpt lat="59.991817964622" lon="15.793584849082">
        <ele>89.4</ele>
        <time>2019-05-20T11:58:43Z</time>
      </trkpt>
      <trkpt lat="59.991959534913" lon="15.793348395683">
        <ele>88.4</ele>
        <time>2019-05-20T11:58:49Z</time>
      </trkpt>
      <trkpt lat="59.992063051378" lon="15.793227696323">
        <ele>87.2</ele>
        <time>2019-05-20T11:58:53Z</time>
      </trkpt>
      <trkpt lat="59.992114767701" lon="15.793151840128">
        <ele>85.6</ele>
        <time>2019-05-20T11:58:55Z</time>
      </trkpt>
      <trkpt lat="59.992299169501" lon="15.792961319541">
        <ele>86.2</ele>
        <time>2019-05-20T11:59:01Z</time>
      </trkpt>
      <trkpt lat="59.992466723682" lon="15.792782449795">
        <ele>85.6</ele>
        <time>2019-05-20T11:59:09Z</time>
      </trkpt>
      <trkpt lat="59.992502430576" lon="15.792742803408">
        <ele>85.8</ele>
        <time>2019-05-20T11:59:12Z</time>
      </trkpt>
      <trkpt lat="59.992548531026" lon="15.792669545602">
        <ele>85.6</ele>
        <time>2019-05-20T11:59:16Z</time>
      </trkpt>
      <trkpt lat="59.992591194897" lon="15.792642220608">
        <ele>85.6</ele>
        <time>2019-05-20T11:59:21Z</time>
      </trkpt>
      <trkpt lat="59.992619944814" lon="15.79261103994">
        <ele>85.6</ele>
        <time>2019-05-20T11:59:25Z</time>
      </trkpt>
      <trkpt lat="59.992679540123" lon="15.792575752141">
        <ele>85.4</ele>
        <time>2019-05-20T11:59:31Z</time>
      </trkpt>
      <trkpt lat="59.992729077152" lon="15.792556976685">
        <ele>85.4</ele>
        <time>2019-05-20T11:59:35Z</time>
      </trkpt>
      <trkpt lat="59.992756737422" lon="15.792542811274">
        <ele>85.2</ele>
        <time>2019-05-20T11:59:37Z</time>
      </trkpt>
      <trkpt lat="59.992778781819" lon="15.792484305612">
        <ele>85.2</ele>
        <time>2019-05-20T11:59:42Z</time>
      </trkpt>
      <trkpt lat="59.99275941963" lon="15.792511127692">
        <ele>85.4</ele>
        <time>2019-05-20T11:59:48Z</time>
      </trkpt>
      <trkpt lat="59.992750283359" lon="15.792510624778">
        <ele>85.2</ele>
        <time>2019-05-20T11:59:49Z</time>
      </trkpt>
      <trkpt lat="59.992725808211" lon="15.792544320016">
        <ele>85.2</ele>
        <time>2019-05-20T11:59:52Z</time>
      </trkpt>
      <trkpt lat="59.992674091888" lon="15.792594192321">
        <ele>85.4</ele>
        <time>2019-05-20T11:59:57Z</time>
      </trkpt>
      <trkpt lat="59.992666967273" lon="15.792617410184">
        <ele>85.4</ele>
        <time>2019-05-20T11:59:58Z</time>
      </trkpt>
      <trkpt lat="59.992596559313" lon="15.792713466758">
        <ele>85</ele>
        <time>2019-05-20T12:00:05Z</time>
      </trkpt>
      <trkpt lat="59.992447780588" lon="15.792841458371">
        <ele>86</ele>
        <time>2019-05-20T12:00:11Z</time>
      </trkpt>
      <trkpt lat="59.992285758461" lon="15.792957547686">
        <ele>86.2</ele>
        <time>2019-05-20T12:00:17Z</time>
      </trkpt>
      <trkpt lat="59.992106301982" lon="15.793080007245">
        <ele>86.6</ele>
        <time>2019-05-20T12:00:23Z</time>
      </trkpt>
      <trkpt lat="59.991941849104" lon="15.793229205065">
        <ele>86.8</ele>
        <time>2019-05-20T12:00:29Z</time>
      </trkpt>
      <trkpt lat="59.99178711923" lon="15.79344503899">
        <ele>85.6</ele>
        <time>2019-05-20T12:00:35Z</time>
      </trkpt>
      <trkpt lat="59.991674885589" lon="15.793742931716">
        <ele>85.2</ele>
        <time>2019-05-20T12:00:40Z</time>
      </trkpt>
      <trkpt lat="59.99149123816" lon="15.793910150621">
        <ele>85</ele>
        <time>2019-05-20T12:00:45Z</time>
      </trkpt>
      <trkpt lat="59.991296526623" lon="15.794039399519">
        <ele>86.2</ele>
        <time>2019-05-20T12:00:50Z</time>
      </trkpt>
      <trkpt lat="59.991192507244" lon="15.794094049507">
        <ele>86.6</ele>
        <time>2019-05-20T12:00:53Z</time>
      </trkpt>
      <trkpt lat="59.991005171779" lon="15.794248444105">
        <ele>86.4</ele>
        <time>2019-05-20T12:00:59Z</time>
      </trkpt>
      <trkpt lat="59.990829235698" lon="15.794405688549">
        <ele>86.4</ele>
        <time>2019-05-20T12:01:04Z</time>
      </trkpt>
      <trkpt lat="59.990664028449" lon="15.794588162512">
        <ele>87</ele>
        <time>2019-05-20T12:01:09Z</time>
      </trkpt>
      <trkpt lat="59.990502341598" lon="15.794782035859">
        <ele>87.4</ele>
        <time>2019-05-20T12:01:14Z</time>
      </trkpt>
      <trkpt lat="59.990469652188" lon="15.79481547964">
        <ele>87.6</ele>
        <time>2019-05-20T12:01:15Z</time>
      </trkpt>
      <trkpt lat="59.99030100836" lon="15.794975993025">
        <ele>87.2</ele>
        <time>2019-05-20T12:01:20Z</time>
      </trkpt>
      <trkpt lat="59.990236551549" lon="15.79502586533">
        <ele>86.4</ele>
        <time>2019-05-20T12:01:22Z</time>
      </trkpt>
      <trkpt lat="59.990113589076" lon="15.795153354029">
        <ele>86</ele>
        <time>2019-05-20T12:01:28Z</time>
      </trkpt>
      <trkpt lat="59.990101686778" lon="15.795153689305">
        <ele>86.2</ele>
        <time>2019-05-20T12:01:30Z</time>
      </trkpt>
      <trkpt lat="59.990077127811" lon="15.795156036237">
        <ele>86.4</ele>
        <time>2019-05-20T12:01:32Z</time>
      </trkpt>
      <trkpt lat="59.990035721225" lon="15.795225186912">
        <ele>86.8</ele>
        <time>2019-05-20T12:01:38Z</time>
      </trkpt>
      <trkpt lat="59.989980484504" lon="15.79527396957">
        <ele>86.8</ele>
        <time>2019-05-20T12:01:42Z</time>
      </trkpt>
      <trkpt lat="59.989965564722" lon="15.795270449172">
        <ele>88</ele>
        <time>2019-05-20T12:01:43Z</time>
      </trkpt>
      <trkpt lat="59.9899539977" lon="15.79526474948">
        <ele>88.2</ele>
        <time>2019-05-20T12:01:44Z</time>
      </trkpt>
      <trkpt lat="59.989913345485" lon="15.795307078075">
        <ele>88.2</ele>
        <time>2019-05-20T12:01:47Z</time>
      </trkpt>
      <trkpt lat="59.989917368797" lon="15.795312191034">
        <ele>88</ele>
        <time>2019-05-20T12:01:49Z</time>
      </trkpt>
      <trkpt lat="59.989988279671" lon="15.795225186912">
        <ele>87.2</ele>
        <time>2019-05-20T12:01:55Z</time>
      </trkpt>
      <trkpt lat="59.990167484693" lon="15.795068864477">
        <ele>86.8</ele>
        <time>2019-05-20T12:02:02Z</time>
      </trkpt>
      <trkpt lat="59.990331267019" lon="15.794850935077">
        <ele>86.6</ele>
        <time>2019-05-20T12:02:08Z</time>
      </trkpt>
      <trkpt lat="59.990419360788" lon="15.794725458034">
        <ele>88</ele>
        <time>2019-05-20T12:02:11Z</time>
      </trkpt>
      <trkpt lat="59.990582304924" lon="15.794508115367">
        <ele>87.6</ele>
        <time>2019-05-20T12:02:16Z</time>
      </trkpt>
      <trkpt lat="59.990771652045" lon="15.794318265332">
        <ele>87.4</ele>
        <time>2019-05-20T12:02:21Z</time>
      </trkpt>
      <trkpt lat="59.990954126008" lon="15.794146352563">
        <ele>87.2</ele>
        <time>2019-05-20T12:02:26Z</time>
      </trkpt>
      <trkpt lat="59.991026210348" lon="15.794107292909">
        <ele>87</ele>
        <time>2019-05-20T12:02:28Z</time>
      </trkpt>
      <trkpt lat="59.991059737948" lon="15.794091199661">
        <ele>87</ele>
        <time>2019-05-20T12:02:29Z</time>
      </trkpt>
      <trkpt lat="59.991263837213" lon="15.794013247991">
        <ele>86.4</ele>
        <time>2019-05-20T12:02:35Z</time>
      </trkpt>
      <trkpt lat="59.991399959269" lon="15.793984581893">
        <ele>86</ele>
        <time>2019-05-20T12:02:39Z</time>
      </trkpt>
      <trkpt lat="59.991531052185" lon="15.793923310204">
        <ele>87.2</ele>
        <time>2019-05-20T12:02:44Z</time>
      </trkpt>
      <trkpt lat="59.99165217064" lon="15.793805712147">
        <ele>87.4</ele>
        <time>2019-05-20T12:02:50Z</time>
      </trkpt>
      <trkpt lat="59.991773289095" lon="15.793617119397">
        <ele>88.4</ele>
        <time>2019-05-20T12:02:56Z</time>
      </trkpt>
      <trkpt lat="59.991827855264" lon="15.793520140814">
        <ele>88</ele>
        <time>2019-05-20T12:02:59Z</time>
      </trkpt>
      <trkpt lat="59.991994403617" lon="15.793367338777">
        <ele>88</ele>
        <time>2019-05-20T12:03:04Z</time>
      </trkpt>
      <trkpt lat="59.992157096296" lon="15.793192827619">
        <ele>88.2</ele>
        <time>2019-05-20T12:03:09Z</time>
      </trkpt>
      <trkpt lat="59.992333367653" lon="15.792947237949">
        <ele>88</ele>
        <time>2019-05-20T12:03:14Z</time>
      </trkpt>
      <trkpt lat="59.992478039247" lon="15.792789239134">
        <ele>87.2</ele>
        <time>2019-05-20T12:03:19Z</time>
      </trkpt>
      <trkpt lat="59.992491701744" lon="15.792782785071">
        <ele>87.4</ele>
        <time>2019-05-20T12:03:21Z</time>
      </trkpt>
      <trkpt lat="59.992528330647" lon="15.792704749582">
        <ele>87.6</ele>
        <time>2019-05-20T12:03:27Z</time>
      </trkpt>
      <trkpt lat="59.992532018683" lon="15.792686979954">
        <ele>87.6</ele>
        <time>2019-05-20T12:03:28Z</time>
      </trkpt>
      <trkpt lat="59.992539059479" lon="15.792662085711">
        <ele>87.6</ele>
        <time>2019-05-20T12:03:30Z</time>
      </trkpt>
      <trkpt lat="59.992535874357" lon="15.792622523143">
        <ele>87.8</ele>
        <time>2019-05-20T12:03:36Z</time>
      </trkpt>
      <trkpt lat="59.992536628728" lon="15.792621684953">
        <ele>88</ele>
        <time>2019-05-20T12:03:42Z</time>
      </trkpt>
      <trkpt lat="59.992537634556" lon="15.792620176211">
        <ele>88</ele>
        <time>2019-05-20T12:03:48Z</time>
      </trkpt>
      <trkpt lat="59.992551883786" lon="15.792593689407">
        <ele>88</ele>
        <time>2019-05-20T12:03:54Z</time>
      </trkpt>
      <trkpt lat="59.992551716148" lon="15.792571896467">
        <ele>88</ele>
        <time>2019-05-20T12:04:00Z</time>
      </trkpt>
      <trkpt lat="59.992542915153" lon="15.792524874008">
        <ele>87.8</ele>
        <time>2019-05-20T12:04:06Z</time>
      </trkpt>
      <trkpt lat="59.992547106103" lon="15.792510540959">
        <ele>87.8</ele>
        <time>2019-05-20T12:04:12Z</time>
      </trkpt>
      <trkpt lat="59.992546435551" lon="15.79251045714">
        <ele>87.8</ele>
        <time>2019-05-20T12:04:13Z</time>
      </trkpt>
      <trkpt lat="59.9925356229" lon="15.792499728308">
        <ele>87.8</ele>
        <time>2019-05-20T12:04:19Z</time>
      </trkpt>
      <trkpt lat="59.992538724203" lon="15.79249536972">
        <ele>87.8</ele>
        <time>2019-05-20T12:04:25Z</time>
      </trkpt>
      <trkpt lat="59.992545010628" lon="15.792497213738">
        <ele>88</ele>
        <time>2019-05-20T12:04:31Z</time>
      </trkpt>
      <trkpt lat="59.992551799967" lon="15.792511379149">
        <ele>88</ele>
        <time>2019-05-20T12:04:37Z</time>
      </trkpt>
      <trkpt lat="59.992588261232" lon="15.792586900068">
        <ele>87.8</ele>
        <time>2019-05-20T12:04:42Z</time>
      </trkpt>
      <trkpt lat="59.992584573196" lon="15.792708772894">
        <ele>87.6</ele>
        <time>2019-05-20T12:04:46Z</time>
      </trkpt>
      <trkpt lat="59.992463287103" lon="15.79286417332">
        <ele>87.6</ele>
        <time>2019-05-20T12:04:53Z</time>
      </trkpt>
      <trkpt lat="59.992298834225" lon="15.793036924279">
        <ele>87.8</ele>
        <time>2019-05-20T12:04:59Z</time>
      </trkpt>
      <trkpt lat="59.992209231714" lon="15.793125604781">
        <ele>88.4</ele>
        <time>2019-05-20T12:05:02Z</time>
      </trkpt>
      <trkpt lat="59.992030697244" lon="15.793284190329">
        <ele>89.4</ele>
        <time>2019-05-20T12:05:08Z</time>
      </trkpt>
      <trkpt lat="59.991862221054" lon="15.793471525794">
        <ele>88</ele>
        <time>2019-05-20T12:05:14Z</time>
      </trkpt>
      <trkpt lat="59.991754597458" lon="15.793615610655">
        <ele>87.4</ele>
        <time>2019-05-20T12:05:18Z</time>
      </trkpt>
      <trkpt lat="59.991611518425" lon="15.79383060639">
        <ele>86.8</ele>
        <time>2019-05-20T12:05:23Z</time>
      </trkpt>
      <trkpt lat="59.991429966471" lon="15.793969494473">
        <ele>87.4</ele>
        <time>2019-05-20T12:05:28Z</time>
      </trkpt>
      <trkpt lat="59.991309183292" lon="15.794039734795">
        <ele>86.2</ele>
        <time>2019-05-20T12:05:32Z</time>
      </trkpt>
      <trkpt lat="59.991198961307" lon="15.794107628185">
        <ele>87.2</ele>
        <time>2019-05-20T12:05:35Z</time>
      </trkpt>
      <trkpt lat="59.991006512883" lon="15.794270572321">
        <ele>87.4</ele>
        <time>2019-05-20T12:05:41Z</time>
      </trkpt>
      <trkpt lat="59.990823452187" lon="15.794436114846">
        <ele>87.6</ele>
        <time>2019-05-20T12:05:46Z</time>
      </trkpt>
      <trkpt lat="59.990657490567" lon="15.79464197431">
        <ele>87.6</ele>
        <time>2019-05-20T12:05:51Z</time>
      </trkpt>
      <trkpt lat="59.990489936386" lon="15.794804499351">
        <ele>88</ele>
        <time>2019-05-20T12:05:56Z</time>
      </trkpt>
      <trkpt lat="59.990327159888" lon="15.794989990798">
        <ele>88</ele>
        <time>2019-05-20T12:06:01Z</time>
      </trkpt>
      <trkpt lat="59.990102441149" lon="15.79519098876">
        <ele>87.2</ele>
        <time>2019-05-20T12:06:10Z</time>
      </trkpt>
      <trkpt lat="59.99004955136" lon="15.795175566064">
        <ele>87.4</ele>
        <time>2019-05-20T12:06:16Z</time>
      </trkpt>
      <trkpt lat="59.990039912175" lon="15.795161149196">
        <ele>87.4</ele>
        <time>2019-05-20T12:06:22Z</time>
      </trkpt>
      <trkpt lat="59.990084084788" lon="15.795102811172">
        <ele>87.2</ele>
        <time>2019-05-20T12:06:28Z</time>
      </trkpt>
      <trkpt lat="59.990107973203" lon="15.795091495607">
        <ele>87.2</ele>
        <time>2019-05-20T12:06:31Z</time>
      </trkpt>
      <trkpt lat="59.990168322883" lon="15.795052268315">
        <ele>87</ele>
        <time>2019-05-20T12:06:37Z</time>
      </trkpt>
      <trkpt lat="59.990317101608" lon="15.794877170424">
        <ele>87.2</ele>
        <time>2019-05-20T12:06:44Z</time>
      </trkpt>
      <trkpt lat="59.990486667445" lon="15.794663180517">
        <ele>88.2</ele>
        <time>2019-05-20T12:06:49Z</time>
      </trkpt>
      <trkpt lat="59.990521787606" lon="15.794621773931">
        <ele>88.2</ele>
        <time>2019-05-20T12:06:50Z</time>
      </trkpt>
      <trkpt lat="59.990670398693" lon="15.794455644673">
        <ele>87.2</ele>
        <time>2019-05-20T12:06:54Z</time>
      </trkpt>
      <trkpt lat="59.99073938173" lon="15.794381716315">
        <ele>87.2</ele>
        <time>2019-05-20T12:06:56Z</time>
      </trkpt>
      <trkpt lat="59.990809538233" lon="15.794324132662">
        <ele>86.8</ele>
        <time>2019-05-20T12:06:58Z</time>
      </trkpt>
      <trkpt lat="59.99092462172" lon="15.794257496557">
        <ele>86</ele>
        <time>2019-05-20T12:07:01Z</time>
      </trkpt>
      <trkpt lat="59.991027635271" lon="15.794196476325">
        <ele>85.6</ele>
        <time>2019-05-20T12:07:04Z</time>
      </trkpt>
      <trkpt lat="59.991237015133" lon="15.794096899353">
        <ele>86</ele>
        <time>2019-05-20T12:07:10Z</time>
      </trkpt>
      <trkpt lat="59.991428457729" lon="15.794060438088">
        <ele>85.2</ele>
        <time>2019-05-20T12:07:16Z</time>
      </trkpt>
      <trkpt lat="59.991590563675" lon="15.793972092862">
        <ele>86.2</ele>
        <time>2019-05-20T12:07:22Z</time>
      </trkpt>
      <trkpt lat="59.991734564717" lon="15.793728179572">
        <ele>86.8</ele>
        <time>2019-05-20T12:07:28Z</time>
      </trkpt>
      <trkpt lat="59.991775552208" lon="15.793651904282">
        <ele>86.8</ele>
        <time>2019-05-20T12:07:30Z</time>
      </trkpt>
      <trkpt lat="59.991887031478" lon="15.793466664292">
        <ele>87.2</ele>
        <time>2019-05-20T12:07:35Z</time>
      </trkpt>
      <trkpt lat="59.992029691416" lon="15.793290979668">
        <ele>88.4</ele>
        <time>2019-05-20T12:07:41Z</time>
      </trkpt>
      <trkpt lat="59.992201352728" lon="15.793085623118">
        <ele>87.8</ele>
        <time>2019-05-20T12:07:47Z</time>
      </trkpt>
      <trkpt lat="59.992371253841" lon="15.79291781748">
        <ele>88</ele>
        <time>2019-05-20T12:07:52Z</time>
      </trkpt>
      <trkpt lat="59.992549620673" lon="15.792693601655">
        <ele>87</ele>
        <time>2019-05-20T12:07:58Z</time>
      </trkpt>
      <trkpt lat="59.992605611765" lon="15.7926479203">
        <ele>86.6</ele>
        <time>2019-05-20T12:08:01Z</time>
      </trkpt>
      <trkpt lat="59.992663698332" lon="15.792606681352">
        <ele>86.6</ele>
        <time>2019-05-20T12:08:07Z</time>
      </trkpt>
      <trkpt lat="59.99267140968" lon="15.792590671923">
        <ele>86.6</ele>
        <time>2019-05-20T12:08:08Z</time>
      </trkpt>
      <trkpt lat="59.992679204847" lon="15.792577177064">
        <ele>85.4</ele>
        <time>2019-05-20T12:08:09Z</time>
      </trkpt>
      <trkpt lat="59.992727149315" lon="15.792539626152">
        <ele>85.2</ele>
        <time>2019-05-20T12:08:12Z</time>
      </trkpt>
      <trkpt lat="59.992774087955" lon="15.792500063584">
        <ele>85.4</ele>
        <time>2019-05-20T12:08:15Z</time>
      </trkpt>
      <trkpt lat="59.992806274451" lon="15.792446167967">
        <ele>85.2</ele>
        <time>2019-05-20T12:08:18Z</time>
      </trkpt>
      <trkpt lat="59.992800155664" lon="15.792488077467">
        <ele>85.4</ele>
        <time>2019-05-20T12:08:24Z</time>
      </trkpt>
      <trkpt lat="59.992782637493" lon="15.792517833212">
        <ele>85.6</ele>
        <time>2019-05-20T12:08:26Z</time>
      </trkpt>
      <trkpt lat="59.992632936759" lon="15.792679603882">
        <ele>85.2</ele>
        <time>2019-05-20T12:08:34Z</time>
      </trkpt>
      <trkpt lat="59.992504023137" lon="15.792797537215">
        <ele>86.6</ele>
        <time>2019-05-20T12:08:38Z</time>
      </trkpt>
      <trkpt lat="59.99244509838" lon="15.792862664578">
        <ele>88.4</ele>
        <time>2019-05-20T12:08:40Z</time>
      </trkpt>
      <trkpt lat="59.992409642943" lon="15.792896108359">
        <ele>89.6</ele>
        <time>2019-05-20T12:08:41Z</time>
      </trkpt>
      <trkpt lat="59.992275951638" lon="15.793026698361">
        <ele>88.4</ele>
        <time>2019-05-20T12:08:45Z</time>
      </trkpt>
      <trkpt lat="59.992136057727" lon="15.793143122952">
        <ele>90.2</ele>
        <time>2019-05-20T12:08:50Z</time>
      </trkpt>
      <trkpt lat="59.992085598689" lon="15.793217302767">
        <ele>91.4</ele>
        <time>2019-05-20T12:08:52Z</time>
      </trkpt>
      <trkpt lat="59.991979483835" lon="15.79334277981">
        <ele>90.4</ele>
        <time>2019-05-20T12:08:56Z</time>
      </trkpt>
      <trkpt lat="59.991837578268" lon="15.793531121103">
        <ele>90.2</ele>
        <time>2019-05-20T12:09:02Z</time>
      </trkpt>
      <trkpt lat="59.991736073459" lon="15.793654754128">
        <ele>89.2</ele>
        <time>2019-05-20T12:09:06Z</time>
      </trkpt>
      <trkpt lat="59.99158343906" lon="15.793802527025">
        <ele>87.8</ele>
        <time>2019-05-20T12:09:11Z</time>
      </trkpt>
      <trkpt lat="59.991412867395" lon="15.793991874146">
        <ele>87.8</ele>
        <time>2019-05-20T12:09:16Z</time>
      </trkpt>
      <trkpt lat="59.99123307564" lon="15.794118776112">
        <ele>86</ele>
        <time>2019-05-20T12:09:22Z</time>
      </trkpt>
      <trkpt lat="59.991112124823" lon="15.794194883764">
        <ele>87.2</ele>
        <time>2019-05-20T12:09:26Z</time>
      </trkpt>
      <trkpt lat="59.990931578697" lon="15.794326563413">
        <ele>86.8</ele>
        <time>2019-05-20T12:09:32Z</time>
      </trkpt>
      <trkpt lat="59.990770478579" lon="15.794519347113">
        <ele>87.4</ele>
        <time>2019-05-20T12:09:37Z</time>
      </trkpt>
      <trkpt lat="59.990633602152" lon="15.794642896319">
        <ele>89</ele>
        <time>2019-05-20T12:09:42Z</time>
      </trkpt>
      <trkpt lat="59.990461018831" lon="15.79483811077">
        <ele>89.4</ele>
        <time>2019-05-20T12:09:48Z</time>
      </trkpt>
      <trkpt lat="59.990369320845" lon="15.794917571182">
        <ele>88.2</ele>
        <time>2019-05-20T12:09:53Z</time>
      </trkpt>
      <trkpt lat="59.99033202139" lon="15.794945985823">
        <ele>88</ele>
        <time>2019-05-20T12:09:56Z</time>
      </trkpt>
      <trkpt lat="59.990257925394" lon="15.79499066135">
        <ele>87.8</ele>
        <time>2019-05-20T12:10:02Z</time>
      </trkpt>
      <trkpt lat="59.990234204617" lon="15.795028044624">
        <ele>88</ele>
        <time>2019-05-20T12:10:04Z</time>
      </trkpt>
      <trkpt lat="59.990205873795" lon="15.795051513944">
        <ele>88</ele>
        <time>2019-05-20T12:10:07Z</time>
      </trkpt>
      <trkpt lat="59.990173268204" lon="15.795075737635">
        <ele>87</ele>
        <time>2019-05-20T12:10:10Z</time>
      </trkpt>
      <trkpt lat="59.990160862992" lon="15.795088813399">
        <ele>86.8</ele>
        <time>2019-05-20T12:10:11Z</time>
      </trkpt>
      <trkpt lat="59.990131023428" lon="15.795120999895">
        <ele>86.6</ele>
        <time>2019-05-20T12:10:13Z</time>
      </trkpt>
      <trkpt lat="59.990074277965" lon="15.795176404254">
        <ele>86.6</ele>
        <time>2019-05-20T12:10:17Z</time>
      </trkpt>
      <trkpt lat="59.99000764186" lon="15.795248740051">
        <ele>86.8</ele>
        <time>2019-05-20T12:10:21Z</time>
      </trkpt>
      <trkpt lat="59.98997830521" lon="15.795271287362">
        <ele>86.6</ele>
        <time>2019-05-20T12:10:23Z</time>
      </trkpt>
      <trkpt lat="59.989960619401" lon="15.795281680918">
        <ele>88</ele>
        <time>2019-05-20T12:10:24Z</time>
      </trkpt>
      <trkpt lat="59.989945112886" lon="15.795293415578">
        <ele>88</ele>
        <time>2019-05-20T12:10:25Z</time>
      </trkpt>
      <trkpt lat="59.989894234753" lon="15.795341695322">
        <ele>88</ele>
        <time>2019-05-20T12:10:29Z</time>
      </trkpt>
      <trkpt lat="59.98978216875" lon="15.795445630882">
        <ele>88</ele>
        <time>2019-05-20T12:10:35Z</time>
      </trkpt>
      <trkpt lat="59.989659541553" lon="15.795585021879">
        <ele>87.6</ele>
        <time>2019-05-20T12:10:41Z</time>
      </trkpt>
      <trkpt lat="59.98955418107" lon="15.795676216951">
        <ele>87</ele>
        <time>2019-05-20T12:10:46Z</time>
      </trkpt>
      <trkpt lat="59.989432727339" lon="15.79577101624">
        <ele>86.8</ele>
        <time>2019-05-20T12:10:52Z</time>
      </trkpt>
      <trkpt lat="59.989300963871" lon="15.795863049502">
        <ele>86.8</ele>
        <time>2019-05-20T12:10:58Z</time>
      </trkpt>
      <trkpt lat="59.989171212059" lon="15.796010822399">
        <ele>87.4</ele>
        <time>2019-05-20T12:11:04Z</time>
      </trkpt>
      <trkpt lat="59.989016733642" lon="15.79611551233">
        <ele>87.8</ele>
        <time>2019-05-20T12:11:10Z</time>
      </trkpt>
      <trkpt lat="59.988992845227" lon="15.796136634718">
        <ele>88.2</ele>
        <time>2019-05-20T12:11:11Z</time>
      </trkpt>
      <trkpt lat="59.988844988511" lon="15.796252388757">
        <ele>87.4</ele>
        <time>2019-05-20T12:11:17Z</time>
      </trkpt>
      <trkpt lat="59.988798804242" lon="15.796309301858">
        <ele>87</ele>
        <time>2019-05-20T12:11:19Z</time>
      </trkpt>
      <trkpt lat="59.988662933643" lon="15.796427151372">
        <ele>87</ele>
        <time>2019-05-20T12:11:25Z</time>
      </trkpt>
      <trkpt lat="59.988531421632" lon="15.796505941232">
        <ele>88</ele>
        <time>2019-05-20T12:11:31Z</time>
      </trkpt>
      <trkpt lat="59.988484063897" lon="15.796519771367">
        <ele>88.2</ele>
        <time>2019-05-20T12:11:33Z</time>
      </trkpt>
      <trkpt lat="59.988352300429" lon="15.79668631972">
        <ele>89</ele>
        <time>2019-05-20T12:11:39Z</time>
      </trkpt>
      <trkpt lat="59.988334027887" lon="15.796705849547">
        <ele>89.2</ele>
        <time>2019-05-20T12:11:40Z</time>
      </trkpt>
      <trkpt lat="59.988293124215" lon="15.796737114034">
        <ele>89</ele>
        <time>2019-05-20T12:11:42Z</time>
      </trkpt>
      <trkpt lat="59.988213831441" lon="15.796826213631">
        <ele>88.8</ele>
        <time>2019-05-20T12:11:46Z</time>
      </trkpt>
      <trkpt lat="59.98811584703" lon="15.796850437322">
        <ele>89</ele>
        <time>2019-05-20T12:11:52Z</time>
      </trkpt>
      <trkpt lat="59.988033620591" lon="15.79681288641">
        <ele>89.2</ele>
        <time>2019-05-20T12:11:55Z</time>
      </trkpt>
      <trkpt lat="59.98790378496" lon="15.796679781838">
        <ele>89.8</ele>
        <time>2019-05-20T12:12:01Z</time>
      </trkpt>
      <trkpt lat="59.987810662051" lon="15.79656562036">
        <ele>90.2</ele>
        <time>2019-05-20T12:12:06Z</time>
      </trkpt>
      <trkpt lat="59.987677054565" lon="15.79639379141">
        <ele>90.8</ele>
        <time>2019-05-20T12:12:12Z</time>
      </trkpt>
      <trkpt lat="59.987632798133" lon="15.796334363739">
        <ele>91.2</ele>
        <time>2019-05-20T12:12:14Z</time>
      </trkpt>
      <trkpt lat="59.987519558664" lon="15.79620603685">
        <ele>92.2</ele>
        <time>2019-05-20T12:12:19Z</time>
      </trkpt>
      <trkpt lat="59.987417970036" lon="15.796036554832">
        <ele>92.8</ele>
        <time>2019-05-20T12:12:25Z</time>
      </trkpt>
      <trkpt lat="59.987369103559" lon="15.795951310909">
        <ele>93.4</ele>
        <time>2019-05-20T12:12:28Z</time>
      </trkpt>
      <trkpt lat="59.987242620688" lon="15.7957408414">
        <ele>93.8</ele>
        <time>2019-05-20T12:12:34Z</time>
      </trkpt>
      <trkpt lat="59.987148827227" lon="15.795577645807">
        <ele>94.4</ele>
        <time>2019-05-20T12:12:39Z</time>
      </trkpt>
      <trkpt lat="59.987029804247" lon="15.795377821311">
        <ele>95</ele>
        <time>2019-05-20T12:12:45Z</time>
      </trkpt>
      <trkpt lat="59.986933077121" lon="15.795260474711">
        <ele>95.4</ele>
        <time>2019-05-20T12:12:50Z</time>
      </trkpt>
      <trkpt lat="59.986803325309" lon="15.795170536924">
        <ele>95.6</ele>
        <time>2019-05-20T12:12:56Z</time>
      </trkpt>
      <trkpt lat="59.986660413914" lon="15.79517506315">
        <ele>95.2</ele>
        <time>2019-05-20T12:13:02Z</time>
      </trkpt>
      <trkpt lat="59.986534769233" lon="15.795218146116">
        <ele>95</ele>
        <time>2019-05-20T12:13:08Z</time>
      </trkpt>
      <trkpt lat="59.98640342486" lon="15.795283273479">
        <ele>94.6</ele>
        <time>2019-05-20T12:13:14Z</time>
      </trkpt>
      <trkpt lat="59.986350786528" lon="15.795308083903">
        <ele>94.4</ele>
        <time>2019-05-20T12:13:16Z</time>
      </trkpt>
      <trkpt lat="59.986239893991" lon="15.795412941472">
        <ele>94</ele>
        <time>2019-05-20T12:13:21Z</time>
      </trkpt>
      <trkpt lat="59.986123134124" lon="15.795537412687">
        <ele>93.4</ele>
        <time>2019-05-20T12:13:26Z</time>
      </trkpt>
      <trkpt lat="59.985971673191" lon="15.795708487266">
        <ele>93.4</ele>
        <time>2019-05-20T12:13:32Z</time>
      </trkpt>
      <trkpt lat="59.985822391552" lon="15.795872772506">
        <ele>92.6</ele>
        <time>2019-05-20T12:13:38Z</time>
      </trkpt>
      <trkpt lat="59.985668751325" lon="15.795997243721">
        <ele>93</ele>
        <time>2019-05-20T12:13:44Z</time>
      </trkpt>
      <trkpt lat="59.985509579044" lon="15.796128755732">
        <ele>92.6</ele>
        <time>2019-05-20T12:13:50Z</time>
      </trkpt>
      <trkpt lat="59.985437494704" lon="15.796173934173">
        <ele>92.4</ele>
        <time>2019-05-20T12:13:53Z</time>
      </trkpt>
      <trkpt lat="59.985311766204" lon="15.796279546113">
        <ele>92.4</ele>
        <time>2019-05-20T12:13:59Z</time>
      </trkpt>
      <trkpt lat="59.985160640547" lon="15.796411225762">
        <ele>92.6</ele>
        <time>2019-05-20T12:14:05Z</time>
      </trkpt>
      <trkpt lat="59.984993170185" lon="15.796536032253">
        <ele>92.6</ele>
        <time>2019-05-20T12:14:11Z</time>
      </trkpt>
      <trkpt lat="59.984843385632" lon="15.796663437133">
        <ele>93.2</ele>
        <time>2019-05-20T12:14:17Z</time>
      </trkpt>
      <trkpt lat="59.984729475611" lon="15.796877343221">
        <ele>92.6</ele>
        <time>2019-05-20T12:14:23Z</time>
      </trkpt>
      <trkpt lat="59.984608692432" lon="15.796997958762">
        <ele>92.6</ele>
        <time>2019-05-20T12:14:28Z</time>
      </trkpt>
      <trkpt lat="59.984563933086" lon="15.796922437843">
        <ele>93.4</ele>
        <time>2019-05-20T12:14:31Z</time>
      </trkpt>
      <trkpt lat="59.984481203733" lon="15.796785645235">
        <ele>94.6</ele>
        <time>2019-05-20T12:14:35Z</time>
      </trkpt>
      <trkpt lat="59.984314571561" lon="15.796681961132">
        <ele>94.8</ele>
        <time>2019-05-20T12:14:41Z</time>
      </trkpt>
      <trkpt lat="59.98415623747" lon="15.796791847841">
        <ele>94.8</ele>
        <time>2019-05-20T12:14:47Z</time>
      </trkpt>
      <trkpt lat="59.9840028487" lon="15.796978596573">
        <ele>95</ele>
        <time>2019-05-20T12:14:53Z</time>
      </trkpt>
      <trkpt lat="59.98381257957" lon="15.796895112849">
        <ele>95</ele>
        <time>2019-05-20T12:14:59Z</time>
      </trkpt>
      <trkpt lat="59.983665393406" lon="15.796633346112">
        <ele>95.6</ele>
        <time>2019-05-20T12:15:05Z</time>
      </trkpt>
      <trkpt lat="59.983580317121" lon="15.796305446184">
        <ele>95.4</ele>
        <time>2019-05-20T12:15:11Z</time>
      </trkpt>
    </trkseg>
  </trk>
</gpx>